Fidelity, Illinois
Current Conditions -  °F | °C
As of 1:50 PM on Tuesday 25 Nov 2014 (Local Time) from KALN Reporting Station
Clear Clear  
Wind Chill: 31°   Ceiling: Unl
Heat Index: 37°   Visibility: 10mi
Dew Point: 25°   Wind: 9mph
Humidity: 60%   Direction: 270°W
Pressure: 30.15"   Gusts: NA
Location:  39.15°N, 90.16°W
Report Text: KALN 251950Z 27008KT 10SM SKC 03/M04 A3015
Loading
Personal Weather Stations






























Interactive Weather Map New forecast layout! Learn more

10-Day Weather Forecast

Advertisements
Track Severe Weather on mobile